sensor_id;sensor_type;location;lat;lon;timestamp;P1;durP1;ratioP1;P2;durP2;ratioP2
24389;SDS011;12510;56.468;-3.004;2023-07-24T00:00:26;297.52;;;273.38;;
24389;SDS011;12510;56.468;-3.004;2023-07-24T00:02:53;414.00;;;377.67;;
24389;SDS011;12510;56.468;-3.004;2023-07-24T00:05:19;383.23;;;352.27;;
24389;SDS011;12510;56.468;-3.004;2023-07-24T00:07:46;343.73;;;313.40;;
24389;SDS011;12510;56.468;-3.004;2023-07-24T00:10:12;375.88;;;344.30;;
24389;SDS011;12510;56.468;-3.004;2023-07-24T00:12:39;325.48;;;297.27;;
24389;SDS011;12510;56.468;-3.004;2023-07-24T00:15:05;376.58;;;344.27;;
24389;SDS011;12510;56.468;-3.004;2023-07-24T00:17:32;373.90;;;341.75;;
24389;SDS011;12510;56.468;-3.004;2023-07-24T00:19:59;412.75;;;374.52;;
24389;SDS011;12510;56.468;-3.004;2023-07-24T00:22:25;458.55;;;415.75;;
24389;SDS011;12510;56.468;-3.004;2023-07-24T00:24:51;476.50;;;434.15;;
24389;SDS011;12510;56.468;-3.004;2023-07-24T00:27:18;491.65;;;448.90;;
24389;SDS011;12510;56.468;-3.004;2023-07-24T00:29:45;489.00;;;445.30;;
24389;SDS011;12510;56.468;-3.004;2023-07-24T00:32:11;546.83;;;496.40;;
24389;SDS011;12510;56.468;-3.004;2023-07-24T00:34:38;476.55;;;434.20;;
24389;SDS011;12510;56.468;-3.004;2023-07-24T00:37:04;566.55;;;513.45;;
24389;SDS011;12510;56.468;-3.004;2023-07-24T00:39:31;539.90;;;493.98;;
24389;SDS011;12510;56.468;-3.004;2023-07-24T00:41:57;565.88;;;515.47;;
24389;SDS011;12510;56.468;-3.004;2023-07-24T00:44:24;540.70;;;491.70;;
24389;SDS011;12510;56.468;-3.004;2023-07-24T00:46:50;586.22;;;533.72;;
24389;SDS011;12510;56.468;-3.004;2023-07-24T00:49:20;519.47;;;474.20;;
24389;SDS011;12510;56.468;-3.004;2023-07-24T00:51:47;614.90;;;557.38;;
24389;SDS011;12510;56.468;-3.004;2023-07-24T00:54:13;493.20;;;450.42;;
24389;SDS011;12510;56.468;-3.004;2023-07-24T00:56:45;543.33;;;497.35;;
24389;SDS011;12510;56.468;-3.004;2023-07-24T00:59:11;511.27;;;467.25;;
24389;SDS011;12510;56.468;-3.004;2023-07-24T01:01:38;606.28;;;557.25;;
24389;SDS011;12510;56.468;-3.004;2023-07-24T01:04:07;576.80;;;527.05;;
24389;SDS011;12510;56.468;-3.004;2023-07-24T01:06:34;559.90;;;515.65;;
24389;SDS011;12510;56.468;-3.004;2023-07-24T01:09:02;578.33;;;533.55;;
24389;SDS011;12510;56.468;-3.004;2023-07-24T01:11:41;573.33;;;529.60;;
24389;SDS011;12510;56.468;-3.004;2023-07-24T01:14:21;484.52;;;447.30;;
24389;SDS011;12510;56.468;-3.004;2023-07-24T01:16:48;483.55;;;447.83;;
24389;SDS011;12510;56.468;-3.004;2023-07-24T01:19:20;461.20;;;428.15;;
24389;SDS011;12510;56.468;-3.004;2023-07-24T01:27:43;286.17;;;267.42;;
24389;SDS011;12510;56.468;-3.004;2023-07-24T01:30:11;227.52;;;212.55;;
24389;SDS011;12510;56.468;-3.004;2023-07-24T01:32:39;166.70;;;155.70;;
24389;SDS011;12510;56.468;-3.004;2023-07-24T01:35:08;112.30;;;104.80;;
24389;SDS011;12510;56.468;-3.004;2023-07-24T01:37:36;75.10;;;70.68;;
24389;SDS011;12510;56.468;-3.004;2023-07-24T01:40:07;38.70;;;36.53;;
24389;SDS011;12510;56.468;-3.004;2023-07-24T01:42:34;25.13;;;23.67;;
24389;SDS011;12510;56.468;-3.004;2023-07-24T01:45:02;11.25;;;10.57;;
24389;SDS011;12510;56.468;-3.004;2023-07-24T01:47:30;5.03;;;4.63;;
24389;SDS011;12510;56.468;-3.004;2023-07-24T01:49:57;5.57;;;5.03;;
24389;SDS011;12510;56.468;-3.004;2023-07-24T01:52:25;2.75;;;2.50;;
24389;SDS011;12510;56.468;-3.004;2023-07-24T01:54:52;2.67;;;2.58;;
24389;SDS011;12510;56.468;-3.004;2023-07-24T01:57:18;2.70;;;2.50;;
24389;SDS011;12510;56.468;-3.004;2023-07-24T01:59:44;2.97;;;1.83;;
24389;SDS011;12510;56.468;-3.004;2023-07-24T02:02:11;2.97;;;2.67;;
24389;SDS011;12510;56.468;-3.004;2023-07-24T02:04:37;3.08;;;2.88;;
24389;SDS011;12510;56.468;-3.004;2023-07-24T02:07:04;2.83;;;2.60;;
24389;SDS011;12510;56.468;-3.004;2023-07-24T02:09:30;2.45;;;2.33;;
24389;SDS011;12510;56.468;-3.004;2023-07-24T02:11:57;3.67;;;3.47;;
24389;SDS011;12510;56.468;-3.004;2023-07-24T02:14:23;3.33;;;3.17;;
24389;SDS011;12510;56.468;-3.004;2023-07-24T02:16:50;2.85;;;2.65;;
24389;SDS011;12510;56.468;-3.004;2023-07-24T02:19:16;2.83;;;2.63;;
24389;SDS011;12510;56.468;-3.004;2023-07-24T02:21:43;2.45;;;1.48;;
24389;SDS011;12510;56.468;-3.004;2023-07-24T02:24:09;3.53;;;2.20;;
24389;SDS011;12510;56.468;-3.004;2023-07-24T02:26:36;2.30;;;2.10;;
24389;SDS011;12510;56.468;-3.004;2023-07-24T02:29:02;1.83;;;1.60;;
24389;SDS011;12510;56.468;-3.004;2023-07-24T02:31:28;1.58;;;1.35;;
24389;SDS011;12510;56.468;-3.004;2023-07-24T02:33:56;1.10;;;1.00;;
24389;SDS011;12510;56.468;-3.004;2023-07-24T02:36:22;1.25;;;1.20;;
24389;SDS011;12510;56.468;-3.004;2023-07-24T02:38:49;1.65;;;1.23;;
24389;SDS011;12510;56.468;-3.004;2023-07-24T02:41:15;4.05;;;1.35;;
24389;SDS011;12510;56.468;-3.004;2023-07-24T02:43:42;2.53;;;1.20;;
24389;SDS011;12510;56.468;-3.004;2023-07-24T02:46:08;1.40;;;1.30;;
24389;SDS011;12510;56.468;-3.004;2023-07-24T02:48:35;1.52;;;1.38;;
24389;SDS011;12510;56.468;-3.004;2023-07-24T02:51:01;2.75;;;1.70;;
24389;SDS011;12510;56.468;-3.004;2023-07-24T02:53:28;1.30;;;1.17;;
24389;SDS011;12510;56.468;-3.004;2023-07-24T02:55:54;3.00;;;1.98;;
24389;SDS011;12510;56.468;-3.004;2023-07-24T02:58:20;2.33;;;1.27;;
24389;SDS011;12510;56.468;-3.004;2023-07-24T03:00:47;1.30;;;1.20;;
24389;SDS011;12510;56.468;-3.004;2023-07-24T03:03:14;2.13;;;1.23;;
24389;SDS011;12510;56.468;-3.004;2023-07-24T03:05:40;0.93;;;0.85;;
24389;SDS011;12510;56.468;-3.004;2023-07-24T03:08:06;8.73;;;2.05;;
24389;SDS011;12510;56.468;-3.004;2023-07-24T03:10:33;1.75;;;1.20;;
24389;SDS011;12510;56.468;-3.004;2023-07-24T03:12:59;1.98;;;0.98;;
24389;SDS011;12510;56.468;-3.004;2023-07-24T03:15:26;1.70;;;1.60;;
24389;SDS011;12510;56.468;-3.004;2023-07-24T03:17:52;2.05;;;1.52;;
24389;SDS011;12510;56.468;-3.004;2023-07-24T03:20:19;2.22;;;2.13;;
24389;SDS011;12510;56.468;-3.004;2023-07-24T03:22:46;3.10;;;1.90;;
24389;SDS011;12510;56.468;-3.004;2023-07-24T03:25:13;1.67;;;1.58;;
24389;SDS011;12510;56.468;-3.004;2023-07-24T03:27:39;6.50;;;1.50;;
24389;SDS011;12510;56.468;-3.004;2023-07-24T03:30:06;2.63;;;1.52;;
24389;SDS011;12510;56.468;-3.004;2023-07-24T03:32:33;1.77;;;1.00;;
24389;SDS011;12510;56.468;-3.004;2023-07-24T03:34:59;2.10;;;1.42;;
24389;SDS011;12510;56.468;-3.004;2023-07-24T03:37:26;4.43;;;1.30;;
24389;SDS011;12510;56.468;-3.004;2023-07-24T03:39:53;1.33;;;1.23;;
24389;SDS011;12510;56.468;-3.004;2023-07-24T03:42:26;1.88;;;1.08;;
24389;SDS011;12510;56.468;-3.004;2023-07-24T03:44:55;1.52;;;0.82;;
24389;SDS011;12510;56.468;-3.004;2023-07-24T03:47:22;2.90;;;1.15;;
24389;SDS011;12510;56.468;-3.004;2023-07-24T03:49:50;1.33;;;1.00;;
24389;SDS011;12510;56.468;-3.004;2023-07-24T03:52:16;1.05;;;0.95;;
24389;SDS011;12510;56.468;-3.004;2023-07-24T03:54:43;1.20;;;1.10;;
24389;SDS011;12510;56.468;-3.004;2023-07-24T03:57:10;1.63;;;1.30;;
24389;SDS011;12510;56.468;-3.004;2023-07-24T03:59:36;2.33;;;1.15;;
24389;SDS011;12510;56.468;-3.004;2023-07-24T04:02:03;1.17;;;0.93;;
24389;SDS011;12510;56.468;-3.004;2023-07-24T04:04:30;3.15;;;1.15;;
24389;SDS011;12510;56.468;-3.004;2023-07-24T04:06:57;2.65;;;1.30;;
24389;SDS011;12510;56.468;-3.004;2023-07-24T04:09:23;1.42;;;1.00;;
24389;SDS011;12510;56.468;-3.004;2023-07-24T04:11:49;1.52;;;1.15;;
24389;SDS011;12510;56.468;-3.004;2023-07-24T04:14:16;1.92;;;1.35;;
24389;SDS011;12510;56.468;-3.004;2023-07-24T04:16:42;2.08;;;1.33;;
24389;SDS011;12510;56.468;-3.004;2023-07-24T04:19:09;1.83;;;1.73;;
24389;SDS011;12510;56.468;-3.004;2023-07-24T04:21:35;3.20;;;2.85;;
24389;SDS011;12510;56.468;-3.004;2023-07-24T04:24:01;6.40;;;5.78;;
24389;SDS011;12510;56.468;-3.004;2023-07-24T04:26:28;4.03;;;3.83;;
24389;SDS011;12510;56.468;-3.004;2023-07-24T04:28:54;4.00;;;3.65;;
24389;SDS011;12510;56.468;-3.004;2023-07-24T04:31:21;3.40;;;3.20;;
24389;SDS011;12510;56.468;-3.004;2023-07-24T04:33:47;4.03;;;2.70;;
24389;SDS011;12510;56.468;-3.004;2023-07-24T04:36:14;3.20;;;3.00;;
24389;SDS011;12510;56.468;-3.004;2023-07-24T04:38:40;3.33;;;3.05;;
24389;SDS011;12510;56.468;-3.004;2023-07-24T04:41:06;5.00;;;3.63;;
24389;SDS011;12510;56.468;-3.004;2023-07-24T04:43:33;6.60;;;3.97;;
24389;SDS011;12510;56.468;-3.004;2023-07-24T04:46:00;8.65;;;4.20;;
24389;SDS011;12510;56.468;-3.004;2023-07-24T04:48:26;5.88;;;3.75;;
24389;SDS011;12510;56.468;-3.004;2023-07-24T04:50:53;4.80;;;4.50;;
24389;SDS011;12510;56.468;-3.004;2023-07-24T04:53:23;2.85;;;2.65;;
24389;SDS011;12510;56.468;-3.004;2023-07-24T04:55:49;4.95;;;3.90;;
24389;SDS011;12510;56.468;-3.004;2023-07-24T04:58:16;5.20;;;4.90;;
24389;SDS011;12510;56.468;-3.004;2023-07-24T05:00:42;4.10;;;3.83;;
24389;SDS011;12510;56.468;-3.004;2023-07-24T05:03:08;4.20;;;3.92;;
24389;SDS011;12510;56.468;-3.004;2023-07-24T05:05:37;3.13;;;2.92;;
24389;SDS011;12510;56.468;-3.004;2023-07-24T05:08:04;3.05;;;2.85;;
24389;SDS011;12510;56.468;-3.004;2023-07-24T05:10:34;3.75;;;3.45;;
24389;SDS011;12510;56.468;-3.004;2023-07-24T05:13:01;4.28;;;3.42;;
24389;SDS011;12510;56.468;-3.004;2023-07-24T05:15:28;3.42;;;3.13;;
24389;SDS011;12510;56.468;-3.004;2023-07-24T05:17:54;3.58;;;3.28;;
24389;SDS011;12510;56.468;-3.004;2023-07-24T05:20:21;4.40;;;3.75;;
24389;SDS011;12510;56.468;-3.004;2023-07-24T05:22:47;4.05;;;3.75;;
24389;SDS011;12510;56.468;-3.004;2023-07-24T05:25:14;3.13;;;2.03;;
24389;SDS011;12510;56.468;-3.004;2023-07-24T05:27:40;3.22;;;1.77;;
24389;SDS011;12510;56.468;-3.004;2023-07-24T05:30:07;4.00;;;3.40;;
24389;SDS011;12510;56.468;-3.004;2023-07-24T05:32:33;3.25;;;1.67;;
24389;SDS011;12510;56.468;-3.004;2023-07-24T05:35:00;6.22;;;3.08;;
24389;SDS011;12510;56.468;-3.004;2023-07-24T05:37:26;2.42;;;2.25;;
24389;SDS011;12510;56.468;-3.004;2023-07-24T05:39:52;4.97;;;4.63;;
24389;SDS011;12510;56.468;-3.004;2023-07-24T05:42:19;2.33;;;2.15;;
24389;SDS011;12510;56.468;-3.004;2023-07-24T05:44:46;4.72;;;3.83;;
24389;SDS011;12510;56.468;-3.004;2023-07-24T05:47:12;4.65;;;4.25;;
24389;SDS011;12510;56.468;-3.004;2023-07-24T05:49:38;3.47;;;3.08;;
24389;SDS011;12510;56.468;-3.004;2023-07-24T05:52:05;5.05;;;3.88;;
24389;SDS011;12510;56.468;-3.004;2023-07-24T05:54:31;5.15;;;4.70;;
24389;SDS011;12510;56.468;-3.004;2023-07-24T05:56:58;5.28;;;4.97;;
24389;SDS011;12510;56.468;-3.004;2023-07-24T05:59:24;4.93;;;4.35;;
24389;SDS011;12510;56.468;-3.004;2023-07-24T06:01:51;3.97;;;3.75;;
24389;SDS011;12510;56.468;-3.004;2023-07-24T06:04:17;6.25;;;5.75;;
24389;SDS011;12510;56.468;-3.004;2023-07-24T06:06:44;5.07;;;4.78;;
24389;SDS011;12510;56.468;-3.004;2023-07-24T06:09:10;6.95;;;6.47;;
24389;SDS011;12510;56.468;-3.004;2023-07-24T06:11:37;6.15;;;5.88;;
24389;SDS011;12510;56.468;-3.004;2023-07-24T06:14:03;9.38;;;8.40;;
24389;SDS011;12510;56.468;-3.004;2023-07-24T06:16:29;6.65;;;6.10;;
24389;SDS011;12510;56.468;-3.004;2023-07-24T06:18:56;9.07;;;8.55;;
24389;SDS011;12510;56.468;-3.004;2023-07-24T06:21:22;8.50;;;8.02;;
24389;SDS011;12510;56.468;-3.004;2023-07-24T06:23:49;12.40;;;11.55;;
24389;SDS011;12510;56.468;-3.004;2023-07-24T06:26:15;8.30;;;7.90;;
24389;SDS011;12510;56.468;-3.004;2023-07-24T06:28:42;64.90;;;60.63;;
24389;SDS011;12510;56.468;-3.004;2023-07-24T06:31:09;32.03;;;30.05;;
24389;SDS011;12510;56.468;-3.004;2023-07-24T06:33:35;91.45;;;85.25;;
24389;SDS011;12510;56.468;-3.004;2023-07-24T06:36:01;35.40;;;33.35;;
24389;SDS011;12510;56.468;-3.004;2023-07-24T06:38:28;45.15;;;42.55;;
24389;SDS011;12510;56.468;-3.004;2023-07-24T06:40:54;50.42;;;47.42;;
24389;SDS011;12510;56.468;-3.004;2023-07-24T06:43:21;93.75;;;87.30;;
24389;SDS011;12510;56.468;-3.004;2023-07-24T06:45:47;147.05;;;134.93;;
24389;SDS011;12510;56.468;-3.004;2023-07-24T06:48:14;278.33;;;254.88;;
24389;SDS011;12510;56.468;-3.004;2023-07-24T06:50:40;146.93;;;133.32;;
24389;SDS011;12510;56.468;-3.004;2023-07-24T06:53:07;6.30;;;4.78;;
24389;SDS011;12510;56.468;-3.004;2023-07-24T06:55:33;4.22;;;1.90;;
24389;SDS011;12510;56.468;-3.004;2023-07-24T06:57:59;4.40;;;1.60;;
24389;SDS011;12510;56.468;-3.004;2023-07-24T07:00:26;2.65;;;2.45;;
24389;SDS011;12510;56.468;-3.004;2023-07-24T07:02:52;1.55;;;1.27;;
24389;SDS011;12510;56.468;-3.004;2023-07-24T07:05:19;4.28;;;3.95;;
24389;SDS011;12510;56.468;-3.004;2023-07-24T07:07:45;2.67;;;2.47;;
24389;SDS011;12510;56.468;-3.004;2023-07-24T07:10:11;2.00;;;1.90;;
24389;SDS011;12510;56.468;-3.004;2023-07-24T07:12:38;1.17;;;1.10;;
24389;SDS011;12510;56.468;-3.004;2023-07-24T07:15:04;0.88;;;0.70;;
24389;SDS011;12510;56.468;-3.004;2023-07-24T07:17:31;1.70;;;1.60;;
24389;SDS011;12510;56.468;-3.004;2023-07-24T07:19:57;1.52;;;1.42;;
24389;SDS011;12510;56.468;-3.004;2023-07-24T07:22:24;1.70;;;1.40;;
24389;SDS011;12510;56.468;-3.004;2023-07-24T07:24:50;2.92;;;1.67;;
24389;SDS011;12510;56.468;-3.004;2023-07-24T07:27:17;3.13;;;2.80;;
24389;SDS011;12510;56.468;-3.004;2023-07-24T07:29:43;1.63;;;1.52;;
24389;SDS011;12510;56.468;-3.004;2023-07-24T07:32:10;0.80;;;0.57;;
24389;SDS011;12510;56.468;-3.004;2023-07-24T07:34:36;1.55;;;1.10;;
24389;SDS011;12510;56.468;-3.004;2023-07-24T07:37:05;2.15;;;0.85;;
24389;SDS011;12510;56.468;-3.004;2023-07-24T07:39:32;1.95;;;0.70;;
24389;SDS011;12510;56.468;-3.004;2023-07-24T07:41:58;1.00;;;0.80;;
24389;SDS011;12510;56.468;-3.004;2023-07-24T07:44:25;0.75;;;0.50;;
24389;SDS011;12510;56.468;-3.004;2023-07-24T07:46:51;3.22;;;1.10;;
24389;SDS011;12510;56.468;-3.004;2023-07-24T07:49:18;2.05;;;0.60;;
24389;SDS011;12510;56.468;-3.004;2023-07-24T07:51:44;3.97;;;1.23;;
24389;SDS011;12510;56.468;-3.004;2023-07-24T07:54:10;0.73;;;0.30;;
24389;SDS011;12510;56.468;-3.004;2023-07-24T07:56:37;4.05;;;1.00;;
24389;SDS011;12510;56.468;-3.004;2023-07-24T07:59:03;2.78;;;0.70;;
24389;SDS011;12510;56.468;-3.004;2023-07-24T08:01:30;2.75;;;0.80;;
24389;SDS011;12510;56.468;-3.004;2023-07-24T08:03:57;1.05;;;0.95;;
24389;SDS011;12510;56.468;-3.004;2023-07-24T08:06:23;1.00;;;0.30;;
24389;SDS011;12510;56.468;-3.004;2023-07-24T08:08:50;0.75;;;0.55;;
24389;SDS011;12510;56.468;-3.004;2023-07-24T08:11:16;2.10;;;0.60;;
24389;SDS011;12510;56.468;-3.004;2023-07-24T08:13:43;0.65;;;0.63;;
24389;SDS011;12510;56.468;-3.004;2023-07-24T08:16:13;1.02;;;0.38;;
24389;SDS011;12510;56.468;-3.004;2023-07-24T08:18:47;1.48;;;0.55;;
24389;SDS011;12510;56.468;-3.004;2023-07-24T08:21:14;1.13;;;0.45;;
24389;SDS011;12510;56.468;-3.004;2023-07-24T08:23:41;2.13;;;0.60;;
24389;SDS011;12510;56.468;-3.004;2023-07-24T08:26:08;1.05;;;0.70;;
24389;SDS011;12510;56.468;-3.004;2023-07-24T08:28:34;0.38;;;0.38;;
24389;SDS011;12510;56.468;-3.004;2023-07-24T08:31:01;1.40;;;1.10;;
24389;SDS011;12510;56.468;-3.004;2023-07-24T08:33:28;1.23;;;0.75;;
24389;SDS011;12510;56.468;-3.004;2023-07-24T08:36:02;0.45;;;0.45;;
24389;SDS011;12510;56.468;-3.004;2023-07-24T08:38:33;0.80;;;0.60;;
24389;SDS011;12510;56.468;-3.004;2023-07-24T08:41:03;1.90;;;1.20;;
24389;SDS011;12510;56.468;-3.004;2023-07-24T08:43:31;2.70;;;0.93;;
24389;SDS011;12510;56.468;-3.004;2023-07-24T08:45:59;1.35;;;1.13;;
24389;SDS011;12510;56.468;-3.004;2023-07-24T08:48:29;2.00;;;1.90;;
24389;SDS011;12510;56.468;-3.004;2023-07-24T08:50:59;2.28;;;1.38;;
24389;SDS011;12510;56.468;-3.004;2023-07-24T08:53:26;1.65;;;1.00;;
24389;SDS011;12510;56.468;-3.004;2023-07-24T08:55:56;1.00;;;0.50;;
24389;SDS011;12510;56.468;-3.004;2023-07-24T08:58:23;0.40;;;0.40;;
24389;SDS011;12510;56.468;-3.004;2023-07-24T09:00:50;1.75;;;1.05;;
24389;SDS011;12510;56.468;-3.004;2023-07-24T09:03:18;5.28;;;1.50;;
24389;SDS011;12510;56.468;-3.004;2023-07-24T09:05:45;2.80;;;0.95;;
24389;SDS011;12510;56.468;-3.004;2023-07-24T09:08:12;1.45;;;0.85;;
24389;SDS011;12510;56.468;-3.004;2023-07-24T09:10:39;0.73;;;0.65;;
24389;SDS011;12510;56.468;-3.004;2023-07-24T09:13:05;4.97;;;2.58;;
24389;SDS011;12510;56.468;-3.004;2023-07-24T09:15:39;3.03;;;1.38;;
24389;SDS011;12510;56.468;-3.004;2023-07-24T09:18:06;2.92;;;1.13;;
24389;SDS011;12510;56.468;-3.004;2023-07-24T09:20:39;5.00;;;1.83;;
24389;SDS011;12510;56.468;-3.004;2023-07-24T09:23:07;1.08;;;0.73;;
24389;SDS011;12510;56.468;-3.004;2023-07-24T09:25:35;1.67;;;1.33;;
24389;SDS011;12510;56.468;-3.004;2023-07-24T09:28:10;1.63;;;1.08;;
24389;SDS011;12510;56.468;-3.004;2023-07-24T09:30:40;2.85;;;0.70;;
24389;SDS011;12510;56.468;-3.004;2023-07-24T09:33:09;1.30;;;0.80;;
24389;SDS011;12510;56.468;-3.004;2023-07-24T09:35:36;1.77;;;0.90;;
24389;SDS011;12510;56.468;-3.004;2023-07-24T09:38:09;0.90;;;0.88;;
24389;SDS011;12510;56.468;-3.004;2023-07-24T09:40:37;3.35;;;1.75;;
24389;SDS011;12510;56.468;-3.004;2023-07-24T09:43:21;1.65;;;1.30;;
24389;SDS011;12510;56.468;-3.004;2023-07-24T09:45:53;0.82;;;0.80;;
24389;SDS011;12510;56.468;-3.004;2023-07-24T09:48:21;1.90;;;1.75;;
24389;SDS011;12510;56.468;-3.004;2023-07-24T09:50:52;2.28;;;1.80;;
24389;SDS011;12510;56.468;-3.004;2023-07-24T09:53:21;2.75;;;1.73;;
24389;SDS011;12510;56.468;-3.004;2023-07-24T09:55:56;4.32;;;2.05;;
24389;SDS011;12510;56.468;-3.004;2023-07-24T09:58:23;1.52;;;1.40;;
24389;SDS011;12510;56.468;-3.004;2023-07-24T10:00:51;2.15;;;1.60;;
24389;SDS011;12510;56.468;-3.004;2023-07-24T10:03:19;2.72;;;2.47;;
24389;SDS011;12510;56.468;-3.004;2023-07-24T10:05:47;1.20;;;0.93;;
24389;SDS011;12510;56.468;-3.004;2023-07-24T10:08:14;3.78;;;3.03;;
24389;SDS011;12510;56.468;-3.004;2023-07-24T10:10:42;0.75;;;0.65;;
24389;SDS011;12510;56.468;-3.004;2023-07-24T10:13:09;0.73;;;0.60;;
24389;SDS011;12510;56.468;-3.004;2023-07-24T10:15:39;6.10;;;1.83;;
24389;SDS011;12510;56.468;-3.004;2023-07-24T10:18:09;1.15;;;0.77;;
24389;SDS011;12510;56.468;-3.004;2023-07-24T10:20:39;0.50;;;0.50;;
24389;SDS011;12510;56.468;-3.004;2023-07-24T10:23:08;1.55;;;1.33;;
24389;SDS011;12510;56.468;-3.004;2023-07-24T10:25:39;0.82;;;0.73;;
24389;SDS011;12510;56.468;-3.004;2023-07-24T10:28:11;0.77;;;0.75;;
24389;SDS011;12510;56.468;-3.004;2023-07-24T10:30:39;1.20;;;0.82;;
24389;SDS011;12510;56.468;-3.004;2023-07-24T10:33:19;1.83;;;0.77;;
24389;SDS011;12510;56.468;-3.004;2023-07-24T10:38:14;1.23;;;0.70;;
24389;SDS011;12510;56.468;-3.004;2023-07-24T10:40:44;0.65;;;0.50;;
24389;SDS011;12510;56.468;-3.004;2023-07-24T10:43:13;2.72;;;2.10;;
24389;SDS011;12510;56.468;-3.004;2023-07-24T10:45:50;1.10;;;1.10;;
24389;SDS011;12510;56.468;-3.004;2023-07-24T10:48:22;1.55;;;1.25;;
24389;SDS011;12510;56.468;-3.004;2023-07-24T10:50:50;0.90;;;0.80;;
24389;SDS011;12510;56.468;-3.004;2023-07-24T10:53:18;1.05;;;1.05;;
24389;SDS011;12510;56.468;-3.004;2023-07-24T10:55:46;0.75;;;0.75;;
24389;SDS011;12510;56.468;-3.004;2023-07-24T10:58:14;1.40;;;0.65;;
24389;SDS011;12510;56.468;-3.004;2023-07-24T11:00:40;1.33;;;1.23;;
24389;SDS011;12510;56.468;-3.004;2023-07-24T11:03:11;1.02;;;0.95;;
24389;SDS011;12510;56.468;-3.004;2023-07-24T11:05:42;6.82;;;1.67;;
24389;SDS011;12510;56.468;-3.004;2023-07-24T11:08:13;1.25;;;1.20;;
24389;SDS011;12510;56.468;-3.004;2023-07-24T11:10:47;2.03;;;0.93;;
24389;SDS011;12510;56.468;-3.004;2023-07-24T11:13:33;1.98;;;1.27;;
24389;SDS011;12510;56.468;-3.004;2023-07-24T11:16:04;0.82;;;0.40;;
24389;SDS011;12510;56.468;-3.004;2023-07-24T11:18:31;0.70;;;0.50;;
24389;SDS011;12510;56.468;-3.004;2023-07-24T11:20:58;1.45;;;0.75;;
24389;SDS011;12510;56.468;-3.004;2023-07-24T11:23:24;1.20;;;1.10;;
24389;SDS011;12510;56.468;-3.004;2023-07-24T11:25:54;2.65;;;0.88;;
24389;SDS011;12510;56.468;-3.004;2023-07-24T11:28:20;1.48;;;1.38;;
24389;SDS011;12510;56.468;-3.004;2023-07-24T11:30:47;1.58;;;1.42;;
24389;SDS011;12510;56.468;-3.004;2023-07-24T11:33:14;7.05;;;1.63;;
24389;SDS011;12510;56.468;-3.004;2023-07-24T11:35:42;1.98;;;1.15;;
24389;SDS011;12510;56.468;-3.004;2023-07-24T11:38:09;1.65;;;1.50;;
24389;SDS011;12510;56.468;-3.004;2023-07-24T11:40:37;6.20;;;1.85;;
24389;SDS011;12510;56.468;-3.004;2023-07-24T11:43:05;5.85;;;1.60;;
24389;SDS011;12510;56.468;-3.004;2023-07-24T11:45:44;1.80;;;0.70;;
24389;SDS011;12510;56.468;-3.004;2023-07-24T11:48:11;2.15;;;1.92;;
24389;SDS011;12510;56.468;-3.004;2023-07-24T11:50:44;0.77;;;0.63;;
24389;SDS011;12510;56.468;-3.004;2023-07-24T11:53:19;3.20;;;0.88;;
24389;SDS011;12510;56.468;-3.004;2023-07-24T11:55:58;1.83;;;0.82;;
24389;SDS011;12510;56.468;-3.004;2023-07-24T11:58:25;2.53;;;1.85;;
24389;SDS011;12510;56.468;-3.004;2023-07-24T12:00:53;1.55;;;1.48;;
24389;SDS011;12510;56.468;-3.004;2023-07-24T12:03:20;2.00;;;1.85;;
24389;SDS011;12510;56.468;-3.004;2023-07-24T12:05:48;1.55;;;0.90;;
24389;SDS011;12510;56.468;-3.004;2023-07-24T12:08:14;1.23;;;1.13;;
24389;SDS011;12510;56.468;-3.004;2023-07-24T12:10:43;1.92;;;1.83;;
24389;SDS011;12510;56.468;-3.004;2023-07-24T12:13:09;0.93;;;0.82;;
24389;SDS011;12510;56.468;-3.004;2023-07-24T12:15:37;1.88;;;1.10;;
24389;SDS011;12510;56.468;-3.004;2023-07-24T12:18:04;0.52;;;0.52;;
24389;SDS011;12510;56.468;-3.004;2023-07-24T12:20:31;2.95;;;2.40;;
24389;SDS011;12510;56.468;-3.004;2023-07-24T12:22:58;0.75;;;0.68;;
24389;SDS011;12510;56.468;-3.004;2023-07-24T12:25:24;1.88;;;0.80;;
24389;SDS011;12510;56.468;-3.004;2023-07-24T12:27:51;0.65;;;0.60;;
24389;SDS011;12510;56.468;-3.004;2023-07-24T12:30:17;2.42;;;0.90;;
24389;SDS011;12510;56.468;-3.004;2023-07-24T12:32:45;1.60;;;1.50;;
24389;SDS011;12510;56.468;-3.004;2023-07-24T12:35:12;2.03;;;1.85;;
24389;SDS011;12510;56.468;-3.004;2023-07-24T12:37:38;0.77;;;0.77;;
24389;SDS011;12510;56.468;-3.004;2023-07-24T12:40:05;1.35;;;1.25;;
24389;SDS011;12510;56.468;-3.004;2023-07-24T12:42:32;1.25;;;0.60;;
24389;SDS011;12510;56.468;-3.004;2023-07-24T12:44:59;1.83;;;1.73;;
24389;SDS011;12510;56.468;-3.004;2023-07-24T12:47:26;5.65;;;1.98;;
24389;SDS011;12510;56.468;-3.004;2023-07-24T12:49:52;0.55;;;0.55;;
24389;SDS011;12510;56.468;-3.004;2023-07-24T12:52:21;0.95;;;0.95;;
24389;SDS011;12510;56.468;-3.004;2023-07-24T12:54:48;1.17;;;1.08;;
24389;SDS011;12510;56.468;-3.004;2023-07-24T12:57:14;2.42;;;1.75;;
24389;SDS011;12510;56.468;-3.004;2023-07-24T12:59:41;4.07;;;0.63;;
24389;SDS011;12510;56.468;-3.004;2023-07-24T13:02:07;2.53;;;1.85;;
24389;SDS011;12510;56.468;-3.004;2023-07-24T13:04:34;1.92;;;1.83;;
24389;SDS011;12510;56.468;-3.004;2023-07-24T13:07:00;2.33;;;1.15;;
24389;SDS011;12510;56.468;-3.004;2023-07-24T13:09:27;3.50;;;1.50;;
24389;SDS011;12510;56.468;-3.004;2023-07-24T13:11:55;0.82;;;0.82;;
24389;SDS011;12510;56.468;-3.004;2023-07-24T13:14:21;1.50;;;0.95;;
24389;SDS011;12510;56.468;-3.004;2023-07-24T13:16:49;1.00;;;0.90;;
24389;SDS011;12510;56.468;-3.004;2023-07-24T13:19:16;1.17;;;1.17;;
24389;SDS011;12510;56.468;-3.004;2023-07-24T13:21:43;2.47;;;2.15;;
24389;SDS011;12510;56.468;-3.004;2023-07-24T13:24:09;2.28;;;1.95;;
24389;SDS011;12510;56.468;-3.004;2023-07-24T13:26:36;1.75;;;1.15;;
24389;SDS011;12510;56.468;-3.004;2023-07-24T13:29:03;1.75;;;1.65;;
24389;SDS011;12510;56.468;-3.004;2023-07-24T13:31:30;1.55;;;0.75;;
24389;SDS011;12510;56.468;-3.004;2023-07-24T13:33:57;1.15;;;1.15;;
24389;SDS011;12510;56.468;-3.004;2023-07-24T13:36:23;1.85;;;1.75;;
24389;SDS011;12510;56.468;-3.004;2023-07-24T13:38:50;1.83;;;1.73;;
24389;SDS011;12510;56.468;-3.004;2023-07-24T13:41:17;1.23;;;0.70;;
24389;SDS011;12510;56.468;-3.004;2023-07-24T13:43:44;3.92;;;1.10;;
24389;SDS011;12510;56.468;-3.004;2023-07-24T13:46:11;3.20;;;3.00;;
24389;SDS011;12510;56.468;-3.004;2023-07-24T13:48:37;3.05;;;1.85;;
24389;SDS011;12510;56.468;-3.004;2023-07-24T13:51:03;1.40;;;1.17;;
24389;SDS011;12510;56.468;-3.004;2023-07-24T13:53:30;1.25;;;1.13;;
24389;SDS011;12510;56.468;-3.004;2023-07-24T13:55:56;3.92;;;2.45;;
24389;SDS011;12510;56.468;-3.004;2023-07-24T13:58:23;2.10;;;0.82;;
24389;SDS011;12510;56.468;-3.004;2023-07-24T14:00:49;0.75;;;0.60;;
24389;SDS011;12510;56.468;-3.004;2023-07-24T14:03:16;1.55;;;0.65;;
24389;SDS011;12510;56.468;-3.004;2023-07-24T14:05:42;1.70;;;1.60;;
24389;SDS011;12510;56.468;-3.004;2023-07-24T14:08:09;1.83;;;0.63;;
24389;SDS011;12510;56.468;-3.004;2023-07-24T14:10:35;0.98;;;0.60;;
24389;SDS011;12510;56.468;-3.004;2023-07-24T14:13:02;1.25;;;1.20;;
24389;SDS011;12510;56.468;-3.004;2023-07-24T14:15:29;5.78;;;1.27;;
24389;SDS011;12510;56.468;-3.004;2023-07-24T14:17:56;0.98;;;0.95;;
24389;SDS011;12510;56.468;-3.004;2023-07-24T14:20:22;5.10;;;0.90;;
24389;SDS011;12510;56.468;-3.004;2023-07-24T14:22:49;0.60;;;0.60;;
24389;SDS011;12510;56.468;-3.004;2023-07-24T14:25:15;2.20;;;0.85;;
24389;SDS011;12510;56.468;-3.004;2023-07-24T14:27:41;2.35;;;1.70;;
24389;SDS011;12510;56.468;-3.004;2023-07-24T14:30:08;1.08;;;0.90;;
24389;SDS011;12510;56.468;-3.004;2023-07-24T14:32:36;2.92;;;1.08;;
24389;SDS011;12510;56.468;-3.004;2023-07-24T14:35:02;0.80;;;0.63;;
24389;SDS011;12510;56.468;-3.004;2023-07-24T14:37:29;2.78;;;1.10;;